Appleton, Wisconsin
Current Conditions -  °F | °C
As of 4:45 PM on Wednesday 26 Nov 2014 (Local Time) from KATW Reporting Station
Haze Haze  
Wind Chill: 13°   Ceiling: 10000
Heat Index: 19°   Visibility: 5mi
Dew Point: 19°   Wind: 5mph
Humidity: 100%   Direction: 330°NNW
Pressure: 30.17"   Gusts: NA
Location:  44.26°N, 88.42°W
Report Text: KATW 262245Z 33004KT 5SM BR SCT015 BKN100 M07/M07 A3017
Loading
Personal Weather Stations






























Interactive Weather Map New forecast layout! Learn more

10-Day Weather Forecast

Advertisements
Track Severe Weather on mobile